sensor_id;sensor_type;location;lat;lon;timestamp;P1;durP1;ratioP1;P2;durP2;ratioP2
7440;SDS011;29616;51.950;8.572;2023-07-22T00:03:23;36.40;;;12.13;;
7440;SDS011;29616;51.950;8.572;2023-07-22T00:06:01;34.78;;;14.45;;
7440;SDS011;29616;51.950;8.572;2023-07-22T00:08:33;35.60;;;15.88;;
7440;SDS011;29616;51.950;8.572;2023-07-22T00:11:02;47.35;;;13.93;;
7440;SDS011;29616;51.950;8.572;2023-07-22T00:13:30;46.45;;;15.88;;
7440;SDS011;29616;51.950;8.572;2023-07-22T00:18:30;35.10;;;15.75;;
7440;SDS011;29616;51.950;8.572;2023-07-22T00:20:59;37.15;;;16.10;;
7440;SDS011;29616;51.950;8.572;2023-07-22T00:23:27;39.55;;;16.25;;
7440;SDS011;29616;51.950;8.572;2023-07-22T00:25:58;54.42;;;17.35;;
7440;SDS011;29616;51.950;8.572;2023-07-22T00:28:27;50.25;;;16.65;;
7440;SDS011;29616;51.950;8.572;2023-07-22T00:30:55;46.25;;;17.42;;
7440;SDS011;29616;51.950;8.572;2023-07-22T00:33:24;40.00;;;14.82;;
7440;SDS011;29616;51.950;8.572;2023-07-22T00:35:53;36.05;;;14.32;;
7440;SDS011;29616;51.950;8.572;2023-07-22T00:38:23;33.17;;;15.02;;
7440;SDS011;29616;51.950;8.572;2023-07-22T00:40:54;38.90;;;12.50;;
7440;SDS011;29616;51.950;8.572;2023-07-22T00:43:23;39.72;;;15.15;;
7440;SDS011;29616;51.950;8.572;2023-07-22T00:45:52;42.25;;;12.73;;
7440;SDS011;29616;51.950;8.572;2023-07-22T00:48:21;47.10;;;17.30;;
7440;SDS011;29616;51.950;8.572;2023-07-22T00:50:50;48.30;;;16.85;;
7440;SDS011;29616;51.950;8.572;2023-07-22T00:53:19;53.42;;;15.95;;
7440;SDS011;29616;51.950;8.572;2023-07-22T00:55:48;53.33;;;17.80;;
7440;SDS011;29616;51.950;8.572;2023-07-22T01:03:15;36.47;;;13.63;;
7440;SDS011;29616;51.950;8.572;2023-07-22T01:05:45;35.08;;;14.98;;
7440;SDS011;29616;51.950;8.572;2023-07-22T01:08:15;39.22;;;14.32;;
7440;SDS011;29616;51.950;8.572;2023-07-22T01:10:43;43.28;;;15.45;;
7440;SDS011;29616;51.950;8.572;2023-07-22T01:13:12;39.60;;;15.18;;
7440;SDS011;29616;51.950;8.572;2023-07-22T01:15:41;40.88;;;15.68;;
7440;SDS011;29616;51.950;8.572;2023-07-22T01:18:11;40.75;;;14.73;;
7440;SDS011;29616;51.950;8.572;2023-07-22T01:20:39;36.30;;;15.07;;
7440;SDS011;29616;51.950;8.572;2023-07-22T01:23:11;40.35;;;15.13;;
7440;SDS011;29616;51.950;8.572;2023-07-22T01:25:39;45.47;;;15.20;;
7440;SDS011;29616;51.950;8.572;2023-07-22T01:28:09;40.17;;;15.38;;
7440;SDS011;29616;51.950;8.572;2023-07-22T01:30:38;50.40;;;17.73;;
7440;SDS011;29616;51.950;8.572;2023-07-22T01:33:07;46.58;;;15.65;;
7440;SDS011;29616;51.950;8.572;2023-07-22T01:35:36;39.47;;;15.48;;
7440;SDS011;29616;51.950;8.572;2023-07-22T01:38:04;46.00;;;15.45;;
7440;SDS011;29616;51.950;8.572;2023-07-22T01:40:35;45.03;;;16.55;;
7440;SDS011;29616;51.950;8.572;2023-07-22T01:43:04;47.35;;;16.38;;
7440;SDS011;29616;51.950;8.572;2023-07-22T01:50:29;40.88;;;16.55;;
7440;SDS011;29616;51.950;8.572;2023-07-22T01:52:58;56.55;;;17.13;;
7440;SDS011;29616;51.950;8.572;2023-07-22T01:55:27;52.35;;;17.63;;
7440;SDS011;29616;51.950;8.572;2023-07-22T02:00:25;58.40;;;16.70;;
7440;SDS011;29616;51.950;8.572;2023-07-22T02:02:54;51.05;;;17.85;;
7440;SDS011;29616;51.950;8.572;2023-07-22T02:05:24;63.15;;;18.52;;
7440;SDS011;29616;51.950;8.572;2023-07-22T02:07:53;63.25;;;17.08;;
7440;SDS011;29616;51.950;8.572;2023-07-22T02:10:22;60.35;;;20.85;;
7440;SDS011;29616;51.950;8.572;2023-07-22T02:12:51;75.72;;;19.85;;
7440;SDS011;29616;51.950;8.572;2023-07-22T02:15:22;73.38;;;20.50;;
7440;SDS011;29616;51.950;8.572;2023-07-22T02:17:51;76.57;;;21.45;;
7440;SDS011;29616;51.950;8.572;2023-07-22T02:20:21;72.00;;;19.02;;
7440;SDS011;29616;51.950;8.572;2023-07-22T02:22:50;192.73;;;87.65;;
7440;SDS011;29616;51.950;8.572;2023-07-22T02:25:19;193.20;;;85.43;;
7440;SDS011;29616;51.950;8.572;2023-07-22T02:30:15;65.43;;;17.17;;
7440;SDS011;29616;51.950;8.572;2023-07-22T02:32:46;55.33;;;17.50;;
7440;SDS011;29616;51.950;8.572;2023-07-22T02:35:14;64.20;;;18.70;;
7440;SDS011;29616;51.950;8.572;2023-07-22T02:37:43;54.72;;;16.67;;
7440;SDS011;29616;51.950;8.572;2023-07-22T02:40:11;68.28;;;17.48;;
7440;SDS011;29616;51.950;8.572;2023-07-22T02:42:39;50.53;;;14.02;;
7440;SDS011;29616;51.950;8.572;2023-07-22T02:45:08;60.00;;;16.88;;
7440;SDS011;29616;51.950;8.572;2023-07-22T02:47:38;55.80;;;19.02;;
7440;SDS011;29616;51.950;8.572;2023-07-22T02:50:09;91.72;;;17.85;;
7440;SDS011;29616;51.950;8.572;2023-07-22T02:52:37;50.67;;;15.93;;
7440;SDS011;29616;51.950;8.572;2023-07-22T02:55:09;52.15;;;16.17;;
7440;SDS011;29616;51.950;8.572;2023-07-22T02:57:39;55.17;;;16.67;;
7440;SDS011;29616;51.950;8.572;2023-07-22T03:00:09;47.53;;;16.63;;
7440;SDS011;29616;51.950;8.572;2023-07-22T03:02:39;96.40;;;29.98;;
7440;SDS011;29616;51.950;8.572;2023-07-22T03:05:09;273.55;;;112.97;;
7440;SDS011;29616;51.950;8.572;2023-07-22T03:07:38;52.85;;;15.82;;
7440;SDS011;29616;51.950;8.572;2023-07-22T03:10:08;42.75;;;15.32;;
7440;SDS011;29616;51.950;8.572;2023-07-22T03:12:37;56.10;;;12.63;;
7440;SDS011;29616;51.950;8.572;2023-07-22T03:15:06;44.20;;;16.23;;
7440;SDS011;29616;51.950;8.572;2023-07-22T03:17:36;56.42;;;17.17;;
7440;SDS011;29616;51.950;8.572;2023-07-22T03:20:05;246.90;;;114.20;;
7440;SDS011;29616;51.950;8.572;2023-07-22T03:22:43;64.20;;;18.17;;
7440;SDS011;29616;51.950;8.572;2023-07-22T03:25:11;66.25;;;19.58;;
7440;SDS011;29616;51.950;8.572;2023-07-22T03:27:44;58.40;;;15.90;;
7440;SDS011;29616;51.950;8.572;2023-07-22T03:30:13;66.32;;;18.35;;
7440;SDS011;29616;51.950;8.572;2023-07-22T03:32:43;83.25;;;21.33;;
7440;SDS011;29616;51.950;8.572;2023-07-22T03:35:14;84.45;;;20.65;;
7440;SDS011;29616;51.950;8.572;2023-07-22T03:37:45;62.70;;;17.15;;
7440;SDS011;29616;51.950;8.572;2023-07-22T03:40:13;69.38;;;18.83;;
7440;SDS011;29616;51.950;8.572;2023-07-22T03:42:46;64.00;;;14.82;;
7440;SDS011;29616;51.950;8.572;2023-07-22T03:45:15;70.80;;;15.65;;
7440;SDS011;29616;51.950;8.572;2023-07-22T03:47:44;77.43;;;20.40;;
7440;SDS011;29616;51.950;8.572;2023-07-22T03:50:13;87.68;;;18.25;;
7440;SDS011;29616;51.950;8.572;2023-07-22T03:52:42;79.32;;;20.02;;
7440;SDS011;29616;51.950;8.572;2023-07-22T03:57:40;54.92;;;16.67;;
7440;SDS011;29616;51.950;8.572;2023-07-22T04:00:09;86.40;;;19.05;;
7440;SDS011;29616;51.950;8.572;2023-07-22T04:02:39;66.38;;;18.95;;
7440;SDS011;29616;51.950;8.572;2023-07-22T04:05:08;75.32;;;19.23;;
7440;SDS011;29616;51.950;8.572;2023-07-22T04:07:38;83.18;;;19.50;;
7440;SDS011;29616;51.950;8.572;2023-07-22T04:10:07;76.35;;;19.30;;
7440;SDS011;29616;51.950;8.572;2023-07-22T04:12:37;82.78;;;20.60;;
7440;SDS011;29616;51.950;8.572;2023-07-22T04:15:08;72.60;;;19.25;;
7440;SDS011;29616;51.950;8.572;2023-07-22T04:17:38;80.88;;;20.05;;
7440;SDS011;29616;51.950;8.572;2023-07-22T04:20:07;67.60;;;19.25;;
7440;SDS011;29616;51.950;8.572;2023-07-22T04:22:36;73.18;;;18.83;;
7440;SDS011;29616;51.950;8.572;2023-07-22T04:25:05;58.00;;;19.42;;
7440;SDS011;29616;51.950;8.572;2023-07-22T04:27:37;57.20;;;15.90;;
7440;SDS011;29616;51.950;8.572;2023-07-22T04:30:06;70.22;;;14.35;;
7440;SDS011;29616;51.950;8.572;2023-07-22T04:32:36;61.20;;;15.10;;
7440;SDS011;29616;51.950;8.572;2023-07-22T04:35:06;70.13;;;20.95;;
7440;SDS011;29616;51.950;8.572;2023-07-22T04:37:36;65.00;;;15.73;;
7440;SDS011;29616;51.950;8.572;2023-07-22T04:40:06;72.85;;;16.77;;
7440;SDS011;29616;51.950;8.572;2023-07-22T04:42:41;54.75;;;17.00;;
7440;SDS011;29616;51.950;8.572;2023-07-22T04:45:10;56.75;;;18.88;;
7440;SDS011;29616;51.950;8.572;2023-07-22T04:47:40;67.18;;;18.27;;
7440;SDS011;29616;51.950;8.572;2023-07-22T04:50:11;66.50;;;17.65;;
7440;SDS011;29616;51.950;8.572;2023-07-22T04:55:10;63.10;;;17.80;;
7440;SDS011;29616;51.950;8.572;2023-07-22T04:57:39;65.63;;;18.45;;
7440;SDS011;29616;51.950;8.572;2023-07-22T05:00:11;61.92;;;17.95;;
7440;SDS011;29616;51.950;8.572;2023-07-22T05:02:42;65.88;;;19.08;;
7440;SDS011;29616;51.950;8.572;2023-07-22T05:05:11;63.88;;;15.50;;
7440;SDS011;29616;51.950;8.572;2023-07-22T05:07:40;65.68;;;15.85;;
7440;SDS011;29616;51.950;8.572;2023-07-22T05:10:09;70.30;;;18.23;;
7440;SDS011;29616;51.950;8.572;2023-07-22T05:12:42;56.58;;;15.50;;
7440;SDS011;29616;51.950;8.572;2023-07-22T05:15:10;62.17;;;17.40;;
7440;SDS011;29616;51.950;8.572;2023-07-22T05:17:40;59.45;;;15.40;;
7440;SDS011;29616;51.950;8.572;2023-07-22T05:20:09;47.28;;;15.65;;
7440;SDS011;29616;51.950;8.572;2023-07-22T05:22:39;57.55;;;17.60;;
7440;SDS011;29616;51.950;8.572;2023-07-22T05:25:08;46.60;;;18.08;;
7440;SDS011;29616;51.950;8.572;2023-07-22T05:27:37;62.58;;;17.38;;
7440;SDS011;29616;51.950;8.572;2023-07-22T05:30:08;46.90;;;14.77;;
7440;SDS011;29616;51.950;8.572;2023-07-22T05:32:57;56.95;;;16.00;;
7440;SDS011;29616;51.950;8.572;2023-07-22T05:35:26;52.10;;;17.13;;
7440;SDS011;29616;51.950;8.572;2023-07-22T05:37:55;47.30;;;16.02;;
7440;SDS011;29616;51.950;8.572;2023-07-22T05:40:23;49.78;;;15.48;;
7440;SDS011;29616;51.950;8.572;2023-07-22T05:42:52;55.97;;;13.45;;
7440;SDS011;29616;51.950;8.572;2023-07-22T05:47:50;41.05;;;14.45;;
7440;SDS011;29616;51.950;8.572;2023-07-22T05:52:47;35.95;;;14.80;;
7440;SDS011;29616;51.950;8.572;2023-07-22T05:55:16;36.47;;;15.18;;
7440;SDS011;29616;51.950;8.572;2023-07-22T05:57:45;44.83;;;12.65;;
7440;SDS011;29616;51.950;8.572;2023-07-22T06:00:14;39.88;;;14.75;;
7440;SDS011;29616;51.950;8.572;2023-07-22T06:02:45;40.20;;;16.45;;
7440;SDS011;29616;51.950;8.572;2023-07-22T06:05:15;44.90;;;14.77;;
7440;SDS011;29616;51.950;8.572;2023-07-22T06:07:43;31.00;;;12.52;;
7440;SDS011;29616;51.950;8.572;2023-07-22T06:10:12;34.10;;;10.38;;
7440;SDS011;29616;51.950;8.572;2023-07-22T06:12:40;39.42;;;14.75;;
7440;SDS011;29616;51.950;8.572;2023-07-22T06:15:09;37.40;;;14.10;;
7440;SDS011;29616;51.950;8.572;2023-07-22T06:17:38;39.70;;;14.65;;
7440;SDS011;29616;51.950;8.572;2023-07-22T06:22:38;29.60;;;12.52;;
7440;SDS011;29616;51.950;8.572;2023-07-22T06:27:35;31.80;;;12.60;;
7440;SDS011;29616;51.950;8.572;2023-07-22T06:30:05;26.77;;;12.10;;
7440;SDS011;29616;51.950;8.572;2023-07-22T06:32:36;26.60;;;12.70;;
7440;SDS011;29616;51.950;8.572;2023-07-22T06:35:05;26.02;;;12.63;;
7440;SDS011;29616;51.950;8.572;2023-07-22T06:37:36;23.95;;;9.65;;
7440;SDS011;29616;51.950;8.572;2023-07-22T06:40:06;22.92;;;11.38;;
7440;SDS011;29616;51.950;8.572;2023-07-22T06:42:35;21.13;;;9.80;;
7440;SDS011;29616;51.950;8.572;2023-07-22T06:45:04;20.92;;;10.82;;
7440;SDS011;29616;51.950;8.572;2023-07-22T06:47:34;19.20;;;9.95;;
7440;SDS011;29616;51.950;8.572;2023-07-22T06:50:03;19.83;;;8.80;;
7440;SDS011;29616;51.950;8.572;2023-07-22T06:52:33;20.27;;;10.57;;
7440;SDS011;29616;51.950;8.572;2023-07-22T06:55:03;19.02;;;8.90;;
7440;SDS011;29616;51.950;8.572;2023-07-22T06:57:33;18.38;;;9.75;;
7440;SDS011;29616;51.950;8.572;2023-07-22T07:00:01;15.95;;;9.52;;
7440;SDS011;29616;51.950;8.572;2023-07-22T07:02:31;21.27;;;9.77;;
7440;SDS011;29616;51.950;8.572;2023-07-22T07:05:00;16.88;;;10.05;;
7440;SDS011;29616;51.950;8.572;2023-07-22T07:07:29;19.98;;;6.85;;
7440;SDS011;29616;51.950;8.572;2023-07-22T07:09:57;18.85;;;10.07;;
7440;SDS011;29616;51.950;8.572;2023-07-22T07:12:27;13.27;;;5.70;;
7440;SDS011;29616;51.950;8.572;2023-07-22T07:14:56;15.30;;;6.68;;
7440;SDS011;29616;51.950;8.572;2023-07-22T07:17:25;12.32;;;7.82;;
7440;SDS011;29616;51.950;8.572;2023-07-22T07:19:54;12.77;;;8.50;;
7440;SDS011;29616;51.950;8.572;2023-07-22T07:22:22;13.13;;;8.55;;
7440;SDS011;29616;51.950;8.572;2023-07-22T07:24:51;13.75;;;6.97;;
7440;SDS011;29616;51.950;8.572;2023-07-22T07:27:22;15.68;;;6.45;;
7440;SDS011;29616;51.950;8.572;2023-07-22T07:29:52;13.75;;;9.23;;
7440;SDS011;29616;51.950;8.572;2023-07-22T07:32:21;12.55;;;7.97;;
7440;SDS011;29616;51.950;8.572;2023-07-22T07:34:50;13.55;;;7.95;;
7440;SDS011;29616;51.950;8.572;2023-07-22T07:37:19;12.38;;;7.63;;
7440;SDS011;29616;51.950;8.572;2023-07-22T07:39:47;14.25;;;9.75;;
7440;SDS011;29616;51.950;8.572;2023-07-22T07:42:16;15.40;;;8.55;;
7440;SDS011;29616;51.950;8.572;2023-07-22T07:44:44;17.23;;;9.32;;
7440;SDS011;29616;51.950;8.572;2023-07-22T07:47:15;11.77;;;6.85;;
7440;SDS011;29616;51.950;8.572;2023-07-22T07:49:43;13.18;;;8.82;;
7440;SDS011;29616;51.950;8.572;2023-07-22T07:52:12;16.52;;;9.05;;
7440;SDS011;29616;51.950;8.572;2023-07-22T07:54:40;13.45;;;6.38;;
7440;SDS011;29616;51.950;8.572;2023-07-22T07:57:09;10.95;;;6.88;;
7440;SDS011;29616;51.950;8.572;2023-07-22T07:59:37;15.02;;;9.40;;
7440;SDS011;29616;51.950;8.572;2023-07-22T08:02:06;12.77;;;8.68;;
7440;SDS011;29616;51.950;8.572;2023-07-22T08:04:38;12.68;;;7.40;;
7440;SDS011;29616;51.950;8.572;2023-07-22T08:07:06;14.02;;;9.13;;
7440;SDS011;29616;51.950;8.572;2023-07-22T08:09:35;16.08;;;8.23;;
7440;SDS011;29616;51.950;8.572;2023-07-22T08:12:04;14.13;;;8.13;;
7440;SDS011;29616;51.950;8.572;2023-07-22T08:14:34;12.50;;;8.48;;
7440;SDS011;29616;51.950;8.572;2023-07-22T08:17:03;13.55;;;8.32;;
7440;SDS011;29616;51.950;8.572;2023-07-22T08:19:31;13.57;;;7.72;;
7440;SDS011;29616;51.950;8.572;2023-07-22T08:22:01;12.55;;;6.90;;
7440;SDS011;29616;51.950;8.572;2023-07-22T08:24:30;11.52;;;8.00;;
7440;SDS011;29616;51.950;8.572;2023-07-22T08:27:00;13.40;;;7.85;;
7440;SDS011;29616;51.950;8.572;2023-07-22T08:29:28;12.40;;;5.80;;
7440;SDS011;29616;51.950;8.572;2023-07-22T08:31:58;13.82;;;8.88;;
7440;SDS011;29616;51.950;8.572;2023-07-22T08:34:26;12.05;;;6.28;;
7440;SDS011;29616;51.950;8.572;2023-07-22T08:36:55;15.57;;;8.32;;
7440;SDS011;29616;51.950;8.572;2023-07-22T08:39:25;14.75;;;9.23;;
7440;SDS011;29616;51.950;8.572;2023-07-22T08:41:54;15.38;;;9.13;;
7440;SDS011;29616;51.950;8.572;2023-07-22T08:44:23;16.17;;;9.15;;
7440;SDS011;29616;51.950;8.572;2023-07-22T08:46:58;15.82;;;7.22;;
7440;SDS011;29616;51.950;8.572;2023-07-22T08:49:30;14.25;;;9.10;;
7440;SDS011;29616;51.950;8.572;2023-07-22T08:52:00;15.85;;;9.85;;
7440;SDS011;29616;51.950;8.572;2023-07-22T08:54:30;52.22;;;12.90;;
7440;SDS011;29616;51.950;8.572;2023-07-22T08:57:00;14.32;;;9.35;;
7440;SDS011;29616;51.950;8.572;2023-07-22T08:59:29;12.23;;;5.57;;
7440;SDS011;29616;51.950;8.572;2023-07-22T09:01:58;15.52;;;10.07;;
7440;SDS011;29616;51.950;8.572;2023-07-22T09:04:27;17.58;;;9.20;;
7440;SDS011;29616;51.950;8.572;2023-07-22T09:06:56;16.00;;;9.13;;
7440;SDS011;29616;51.950;8.572;2023-07-22T09:09:25;14.10;;;9.07;;
7440;SDS011;29616;51.950;8.572;2023-07-22T09:11:56;15.48;;;8.35;;
7440;SDS011;29616;51.950;8.572;2023-07-22T09:14:26;15.45;;;10.00;;
7440;SDS011;29616;51.950;8.572;2023-07-22T09:17:03;15.18;;;8.77;;
7440;SDS011;29616;51.950;8.572;2023-07-22T09:19:32;17.60;;;10.20;;
7440;SDS011;29616;51.950;8.572;2023-07-22T09:22:01;18.33;;;10.02;;
7440;SDS011;29616;51.950;8.572;2023-07-22T09:24:30;14.50;;;7.88;;
7440;SDS011;29616;51.950;8.572;2023-07-22T09:27:00;12.80;;;8.52;;
7440;SDS011;29616;51.950;8.572;2023-07-22T09:29:32;14.27;;;10.00;;
7440;SDS011;29616;51.950;8.572;2023-07-22T09:32:02;15.88;;;8.95;;
7440;SDS011;29616;51.950;8.572;2023-07-22T09:34:32;13.38;;;8.73;;
7440;SDS011;29616;51.950;8.572;2023-07-22T09:37:01;13.40;;;9.63;;
7440;SDS011;29616;51.950;8.572;2023-07-22T09:39:30;13.52;;;9.00;;
7440;SDS011;29616;51.950;8.572;2023-07-22T09:42:00;10.88;;;5.45;;
7440;SDS011;29616;51.950;8.572;2023-07-22T09:44:31;12.98;;;8.15;;
7440;SDS011;29616;51.950;8.572;2023-07-22T09:47:05;11.40;;;7.13;;
7440;SDS011;29616;51.950;8.572;2023-07-22T09:49:39;10.63;;;8.05;;
7440;SDS011;29616;51.950;8.572;2023-07-22T09:52:10;8.73;;;4.03;;
7440;SDS011;29616;51.950;8.572;2023-07-22T09:54:46;10.43;;;6.57;;
7440;SDS011;29616;51.950;8.572;2023-07-22T09:57:18;10.02;;;7.60;;
7440;SDS011;29616;51.950;8.572;2023-07-22T09:59:48;10.65;;;5.18;;
7440;SDS011;29616;51.950;8.572;2023-07-22T10:02:19;11.25;;;7.03;;
7440;SDS011;29616;51.950;8.572;2023-07-22T10:04:49;10.35;;;6.75;;
7440;SDS011;29616;51.950;8.572;2023-07-22T10:07:20;13.30;;;7.07;;
7440;SDS011;29616;51.950;8.572;2023-07-22T10:09:49;10.52;;;7.78;;
7440;SDS011;29616;51.950;8.572;2023-07-22T10:12:23;12.48;;;5.45;;
7440;SDS011;29616;51.950;8.572;2023-07-22T10:14:52;8.35;;;5.78;;
7440;SDS011;29616;51.950;8.572;2023-07-22T10:17:21;7.25;;;4.75;;
7440;SDS011;29616;51.950;8.572;2023-07-22T10:19:51;9.57;;;6.32;;
7440;SDS011;29616;51.950;8.572;2023-07-22T10:22:21;9.25;;;7.07;;
7440;SDS011;29616;51.950;8.572;2023-07-22T10:24:50;8.63;;;6.22;;
7440;SDS011;29616;51.950;8.572;2023-07-22T10:27:22;11.32;;;7.97;;
7440;SDS011;29616;51.950;8.572;2023-07-22T10:29:55;9.65;;;7.10;;
7440;SDS011;29616;51.950;8.572;2023-07-22T10:32:23;10.57;;;7.05;;
7440;SDS011;29616;51.950;8.572;2023-07-22T10:34:52;10.02;;;6.88;;
7440;SDS011;29616;51.950;8.572;2023-07-22T10:37:21;10.10;;;6.43;;
7440;SDS011;29616;51.950;8.572;2023-07-22T10:39:59;9.23;;;7.50;;
7440;SDS011;29616;51.950;8.572;2023-07-22T10:42:30;10.88;;;6.63;;
7440;SDS011;29616;51.950;8.572;2023-07-22T10:45:00;16.25;;;7.57;;
7440;SDS011;29616;51.950;8.572;2023-07-22T10:47:33;8.75;;;6.32;;
7440;SDS011;29616;51.950;8.572;2023-07-22T10:50:07;8.25;;;6.28;;
7440;SDS011;29616;51.950;8.572;2023-07-22T10:52:40;8.63;;;6.15;;
7440;SDS011;29616;51.950;8.572;2023-07-22T10:55:17;7.93;;;3.97;;
7440;SDS011;29616;51.950;8.572;2023-07-22T10:57:54;9.73;;;6.72;;
7440;SDS011;29616;51.950;8.572;2023-07-22T11:00:23;9.32;;;3.92;;
7440;SDS011;29616;51.950;8.572;2023-07-22T11:03:11;9.38;;;5.72;;
7440;SDS011;29616;51.950;8.572;2023-07-22T11:05:47;7.15;;;4.13;;
7440;SDS011;29616;51.950;8.572;2023-07-22T11:08:35;9.05;;;7.00;;
7440;SDS011;29616;51.950;8.572;2023-07-22T11:11:05;9.40;;;6.22;;
7440;SDS011;29616;51.950;8.572;2023-07-22T11:13:41;8.38;;;4.40;;
7440;SDS011;29616;51.950;8.572;2023-07-22T11:16:10;7.38;;;4.07;;
7440;SDS011;29616;51.950;8.572;2023-07-22T11:18:40;8.02;;;4.10;;
7440;SDS011;29616;51.950;8.572;2023-07-22T11:21:10;8.20;;;6.05;;
7440;SDS011;29616;51.950;8.572;2023-07-22T11:23:40;7.88;;;6.75;;
7440;SDS011;29616;51.950;8.572;2023-07-22T11:26:08;9.25;;;5.60;;
7440;SDS011;29616;51.950;8.572;2023-07-22T11:28:38;7.15;;;5.70;;
7440;SDS011;29616;51.950;8.572;2023-07-22T11:31:08;8.90;;;6.35;;
7440;SDS011;29616;51.950;8.572;2023-07-22T11:33:38;9.18;;;7.07;;
7440;SDS011;29616;51.950;8.572;2023-07-22T11:36:07;7.28;;;6.18;;
7440;SDS011;29616;51.950;8.572;2023-07-22T11:38:36;6.35;;;3.17;;
7440;SDS011;29616;51.950;8.572;2023-07-22T11:41:04;8.48;;;5.20;;
7440;SDS011;29616;51.950;8.572;2023-07-22T11:43:34;8.27;;;5.13;;
7440;SDS011;29616;51.950;8.572;2023-07-22T11:46:05;11.52;;;7.03;;
7440;SDS011;29616;51.950;8.572;2023-07-22T11:48:34;8.63;;;6.80;;
7440;SDS011;29616;51.950;8.572;2023-07-22T11:51:03;6.85;;;5.78;;
7440;SDS011;29616;51.950;8.572;2023-07-22T11:53:32;7.03;;;5.78;;
7440;SDS011;29616;51.950;8.572;2023-07-22T11:56:00;8.05;;;6.60;;
7440;SDS011;29616;51.950;8.572;2023-07-22T11:58:31;7.40;;;5.97;;
7440;SDS011;29616;51.950;8.572;2023-07-22T12:01:02;7.30;;;3.20;;
7440;SDS011;29616;51.950;8.572;2023-07-22T12:03:33;8.25;;;7.47;;
7440;SDS011;29616;51.950;8.572;2023-07-22T12:06:02;7.00;;;5.80;;
7440;SDS011;29616;51.950;8.572;2023-07-22T12:08:31;6.68;;;5.03;;
7440;SDS011;29616;51.950;8.572;2023-07-22T12:11:01;7.10;;;5.32;;
7440;SDS011;29616;51.950;8.572;2023-07-22T12:13:35;7.28;;;4.60;;
7440;SDS011;29616;51.950;8.572;2023-07-22T12:16:05;6.50;;;5.90;;
7440;SDS011;29616;51.950;8.572;2023-07-22T12:18:44;5.43;;;4.72;;
7440;SDS011;29616;51.950;8.572;2023-07-22T12:21:14;10.63;;;4.80;;
7440;SDS011;29616;51.950;8.572;2023-07-22T12:23:42;5.85;;;2.40;;
7440;SDS011;29616;51.950;8.572;2023-07-22T12:26:11;4.95;;;4.07;;
7440;SDS011;29616;51.950;8.572;2023-07-22T12:28:40;7.80;;;6.20;;
7440;SDS011;29616;51.950;8.572;2023-07-22T12:31:08;6.22;;;2.88;;
7440;SDS011;29616;51.950;8.572;2023-07-22T12:33:37;7.18;;;5.13;;
7440;SDS011;29616;51.950;8.572;2023-07-22T12:36:08;6.90;;;5.18;;
7440;SDS011;29616;51.950;8.572;2023-07-22T12:38:36;6.85;;;5.00;;
7440;SDS011;29616;51.950;8.572;2023-07-22T12:41:05;6.15;;;5.50;;
7440;SDS011;29616;51.950;8.572;2023-07-22T12:43:33;5.28;;;2.95;;
7440;SDS011;29616;51.950;8.572;2023-07-22T12:46:02;4.43;;;2.33;;
7440;SDS011;29616;51.950;8.572;2023-07-22T12:48:31;4.95;;;2.63;;
7440;SDS011;29616;51.950;8.572;2023-07-22T12:50:59;6.78;;;5.32;;
7440;SDS011;29616;51.950;8.572;2023-07-22T12:53:32;6.80;;;5.00;;
7440;SDS011;29616;51.950;8.572;2023-07-22T12:56:01;5.07;;;4.50;;
7440;SDS011;29616;51.950;8.572;2023-07-22T12:58:32;4.95;;;3.42;;
7440;SDS011;29616;51.950;8.572;2023-07-22T13:01:00;5.45;;;3.38;;
7440;SDS011;29616;51.950;8.572;2023-07-22T13:03:29;6.05;;;4.10;;
7440;SDS011;29616;51.950;8.572;2023-07-22T13:05:58;5.85;;;5.25;;
7440;SDS011;29616;51.950;8.572;2023-07-22T13:08:27;6.35;;;4.25;;
7440;SDS011;29616;51.950;8.572;2023-07-22T13:10:56;5.25;;;4.65;;
7440;SDS011;29616;51.950;8.572;2023-07-22T13:13:25;5.20;;;4.38;;
7440;SDS011;29616;51.950;8.572;2023-07-22T13:15:53;4.95;;;2.08;;
7440;SDS011;29616;51.950;8.572;2023-07-22T13:18:22;4.50;;;3.78;;
7440;SDS011;29616;51.950;8.572;2023-07-22T13:20:50;4.78;;;4.00;;
7440;SDS011;29616;51.950;8.572;2023-07-22T13:23:18;5.20;;;4.10;;
7440;SDS011;29616;51.950;8.572;2023-07-22T13:25:47;4.28;;;3.88;;
7440;SDS011;29616;51.950;8.572;2023-07-22T13:28:17;5.00;;;4.50;;
7440;SDS011;29616;51.950;8.572;2023-07-22T13:30:46;4.93;;;4.10;;
7440;SDS011;29616;51.950;8.572;2023-07-22T13:33:14;4.78;;;2.38;;
7440;SDS011;29616;51.950;8.572;2023-07-22T13:35:44;5.55;;;4.82;;
7440;SDS011;29616;51.950;8.572;2023-07-22T13:38:13;6.43;;;5.00;;
7440;SDS011;29616;51.950;8.572;2023-07-22T13:40:41;4.57;;;2.38;;
7440;SDS011;29616;51.950;8.572;2023-07-22T13:43:10;4.63;;;4.00;;
7440;SDS011;29616;51.950;8.572;2023-07-22T13:45:40;5.50;;;4.28;;
7440;SDS011;29616;51.950;8.572;2023-07-22T13:48:08;3.60;;;2.20;;
7440;SDS011;29616;51.950;8.572;2023-07-22T13:50:38;6.32;;;4.75;;
7440;SDS011;29616;51.950;8.572;2023-07-22T13:53:08;6.05;;;5.43;;
7440;SDS011;29616;51.950;8.572;2023-07-22T13:55:36;5.18;;;4.22;;
7440;SDS011;29616;51.950;8.572;2023-07-22T13:58:04;5.68;;;4.75;;
7440;SDS011;29616;51.950;8.572;2023-07-22T14:00:33;3.53;;;2.15;;
7440;SDS011;29616;51.950;8.572;2023-07-22T14:03:03;4.95;;;3.67;;
7440;SDS011;29616;51.950;8.572;2023-07-22T14:05:32;4.65;;;2.10;;
7440;SDS011;29616;51.950;8.572;2023-07-22T14:08:01;5.47;;;4.97;;
7440;SDS011;29616;51.950;8.572;2023-07-22T14:10:29;6.90;;;4.38;;
7440;SDS011;29616;51.950;8.572;2023-07-22T14:12:58;4.10;;;2.22;;
7440;SDS011;29616;51.950;8.572;2023-07-22T14:15:26;4.15;;;3.22;;
7440;SDS011;29616;51.950;8.572;2023-07-22T14:17:55;4.05;;;2.25;;
7440;SDS011;29616;51.950;8.572;2023-07-22T14:20:24;5.88;;;4.15;;
7440;SDS011;29616;51.950;8.572;2023-07-22T14:22:53;4.20;;;3.58;;
7440;SDS011;29616;51.950;8.572;2023-07-22T14:25:21;4.53;;;4.07;;
7440;SDS011;29616;51.950;8.572;2023-07-22T14:27:50;5.80;;;4.35;;
7440;SDS011;29616;51.950;8.572;2023-07-22T14:30:18;5.30;;;4.45;;
7440;SDS011;29616;51.950;8.572;2023-07-22T14:32:47;4.25;;;3.30;;
7440;SDS011;29616;51.950;8.572;2023-07-22T14:35:16;6.57;;;5.95;;
7440;SDS011;29616;51.950;8.572;2023-07-22T14:37:46;3.45;;;1.55;;
7440;SDS011;29616;51.950;8.572;2023-07-22T14:40:14;4.38;;;3.97;;
7440;SDS011;29616;51.950;8.572;2023-07-22T14:42:43;4.80;;;4.28;;
7440;SDS011;29616;51.950;8.572;2023-07-22T14:45:12;10.77;;;4.85;;
7440;SDS011;29616;51.950;8.572;2023-07-22T14:47:41;5.38;;;4.88;;
7440;SDS011;29616;51.950;8.572;2023-07-22T14:50:10;3.17;;;1.63;;
7440;SDS011;29616;51.950;8.572;2023-07-22T14:52:39;3.92;;;3.10;;
7440;SDS011;29616;51.950;8.572;2023-07-22T14:55:10;4.78;;;1.20;;
7440;SDS011;29616;51.950;8.572;2023-07-22T14:57:37;4.32;;;3.38;;
7440;SDS011;29616;51.950;8.572;2023-07-22T15:00:06;5.38;;;4.88;;
7440;SDS011;29616;51.950;8.572;2023-07-22T15:02:37;5.03;;;4.53;;
7440;SDS011;29616;51.950;8.572;2023-07-22T15:05:05;5.20;;;4.63;;
7440;SDS011;29616;51.950;8.572;2023-07-22T15:07:37;4.35;;;3.70;;
7440;SDS011;29616;51.950;8.572;2023-07-22T15:10:06;4.20;;;3.78;;
7440;SDS011;29616;51.950;8.572;2023-07-22T15:12:36;3.42;;;1.60;;
7440;SDS011;29616;51.950;8.572;2023-07-22T15:15:05;4.15;;;3.75;;
7440;SDS011;29616;51.950;8.572;2023-07-22T15:17:35;3.85;;;3.45;;
7440;SDS011;29616;51.950;8.572;2023-07-22T15:20:04;4.07;;;3.40;;
7440;SDS011;29616;51.950;8.572;2023-07-22T15:22:34;5.45;;;1.38;;
7440;SDS011;29616;51.950;8.572;2023-07-22T15:25:03;3.35;;;2.00;;
7440;SDS011;29616;51.950;8.572;2023-07-22T15:27:32;4.88;;;4.32;;
7440;SDS011;29616;51.950;8.572;2023-07-22T15:30:02;3.45;;;1.83;;
7440;SDS011;29616;51.950;8.572;2023-07-22T15:32:32;3.72;;;3.30;;
7440;SDS011;29616;51.950;8.572;2023-07-22T15:35:00;4.32;;;3.33;;